Time;durP1;ratioP1;P1;durP2;ratioP2;P2;SDS_P1;SDS_P2;PMS_P1;PMS_P2;Temp;Humidity;BMP_temperature;BMP_pressure;BME280_temperature;BME280_humidity;BME280_pressure;Samples;Min_cycle;Max_cycle;Signal;HPM_P1;HPM_P2
2022/08/06 00:02:14;;;;;;;1.20;0.10;;;22.30;53.80;;;;;;5113162;28;20106;-73
2022/08/06 00:04:40;;;;;;;0.57;0.10;;;22.30;53.80;;;;;;5111836;28;20048;-73
2022/08/06 00:07:06;;;;;;;0.60;0.10;;;22.30;53.80;;;;;;5111861;28;20069;-72
2022/08/06 00:09:32;;;;;;;0.30;0.10;;;22.20;53.70;;;;;;5111877;28;20039;-72
2022/08/06 00:11:59;;;;;;;1.30;0.10;;;22.20;53.70;;;;;;5112204;28;20090;-73
2022/08/06 00:14:26;;;;;;;0.28;0.10;;;22.20;53.70;;;;;;5111793;28;20108;-72
2022/08/06 00:16:52;;;;;;;0.77;0.10;;;22.20;53.80;;;;;;5113081;28;20085;-72
2022/08/06 00:19:17;;;;;;;0.20;0.10;;;22.20;53.80;;;;;;5111688;28;20517;-72
2022/08/06 00:21:43;;;;;;;0.22;0.10;;;22.20;53.80;;;;;;5111595;28;20032;-73
2022/08/06 00:24:09;;;;;;;0.20;0.10;;;22.20;53.80;;;;;;5111580;28;20040;-72
2022/08/06 00:26:34;;;;;;;0.60;0.10;;;22.20;53.80;;;;;;5111569;28;20107;-72
2022/08/06 00:29:00;;;;;;;0.35;0.10;;;22.20;53.80;;;;;;5111606;28;20042;-72
2022/08/06 00:31:26;;;;;;;0.22;0.10;;;22.20;53.80;;;;;;5111429;28;20035;-72
2022/08/06 00:33:51;;;;;;;0.40;0.10;;;22.20;53.80;;;;;;5112754;28;20048;-72
2022/08/06 00:36:17;;;;;;;0.52;0.10;;;22.20;53.80;;;;;;5111635;28;20051;-72
2022/08/06 00:38:42;;;;;;;0.20;0.10;;;22.20;53.80;;;;;;5111459;28;20514;-73
2022/08/06 00:41:08;;;;;;;0.95;0.10;;;22.20;53.80;;;;;;5111616;28;20043;-72
2022/08/06 00:43:34;;;;;;;0.22;0.10;;;22.20;53.80;;;;;;5111234;28;20581;-72
2022/08/06 00:45:59;;;;;;;0.40;0.00;;;22.10;53.80;;;;;;5111287;28;20055;-73
2022/08/06 00:48:25;;;;;;;0.20;0.10;;;22.20;53.90;;;;;;5112564;28;20081;-73
2022/08/06 00:50:51;;;;;;;0.10;0.03;;;22.20;53.80;;;;;;5111205;28;20035;-72
2022/08/06 00:53:16;;;;;;;0.43;0.10;;;22.20;53.80;;;;;;5111185;28;20039;-72
2022/08/06 00:55:42;;;;;;;0.15;0.03;;;22.10;53.80;;;;;;5111435;28;20047;-72
2022/08/06 00:58:08;;;;;;;0.30;0.10;;;22.10;53.80;;;;;;5110987;28;20043;-72
2022/08/06 01:00:34;;;;;;;0.95;0.00;;;22.10;53.80;;;;;;5111433;28;20043;-72
2022/08/06 01:02:59;;;;;;;0.35;0.03;;;22.10;53.80;;;;;;5110949;28;20050;-73
2022/08/06 01:05:25;;;;;;;0.30;0.17;;;22.10;53.80;;;;;;5111267;28;20047;-72
2022/08/06 01:07:51;;;;;;;0.35;0.10;;;22.10;53.90;;;;;;5110964;28;20401;-72
2022/08/06 01:10:17;;;;;;;0.47;0.10;;;22.10;53.80;;;;;;5111036;28;20056;-72
2022/08/06 01:12:42;;;;;;;0.55;0.22;;;22.10;53.90;;;;;;5111165;28;20036;-72
2022/08/06 01:15:08;;;;;;;0.32;0.10;;;22.20;53.90;;;;;;5111278;28;20035;-72
2022/08/06 01:17:42;;;;;;;0.65;0.10;;;22.10;53.90;;;;;;5111028;28;20490;-73
2022/08/06 01:20:48;;;;;;;0.38;0.10;;;22.10;53.90;;;;;;5111231;28;20070;-73
2022/08/06 01:23:53;;;;;;;0.20;0.10;;;22.10;53.90;;;;;;5110646;28;20487;-72
2022/08/06 01:29:26;;;;;;;0.52;0.10;;;22.10;53.90;;;;;;5109696;27;20304;-72
2022/08/06 01:31:59;;;;;;;1.40;0.10;;;22.00;53.90;;;;;;5108480;28;20078;-73
2022/08/06 01:34:46;;;;;;;0.28;0.03;;;22.10;53.90;;;;;;5108486;28;20054;-72
2022/08/06 01:37:21;;;;;;;0.35;0.10;;;22.00;53.90;;;;;;5108299;28;20090;-73
2022/08/06 01:39:52;;;;;;;0.40;0.10;;;22.00;54.10;;;;;;5108429;28;20040;-73
2022/08/06 01:42:20;;;;;;;0.98;0.25;;;22.00;53.90;;;;;;5108325;28;20047;-73
2022/08/06 01:44:49;;;;;;;0.40;0.10;;;22.00;53.90;;;;;;5108646;28;20047;-72
2022/08/06 01:47:18;;;;;;;0.20;0.10;;;22.00;53.90;;;;;;5109415;28;20048;-72
2022/08/06 01:49:49;;;;;;;0.20;0.10;;;22.00;53.90;;;;;;5109459;28;20031;-72
2022/08/06 01:52:16;;;;;;;0.60;0.05;;;22.00;53.90;;;;;;5108230;28;20044;-72
2022/08/06 01:54:46;;;;;;;0.65;0.20;;;22.00;53.90;;;;;;5107980;28;20051;-73
2022/08/06 01:57:15;;;;;;;0.68;0.10;;;22.00;53.90;;;;;;5109560;28;20130;-73
2022/08/06 01:59:46;;;;;;;0.20;0.10;;;22.00;53.90;;;;;;5108188;28;20096;-72
2022/08/06 02:02:18;;;;;;;0.40;0.10;;;21.90;53.90;;;;;;5108032;28;20059;-72
2022/08/06 02:04:46;;;;;;;0.68;0.10;;;21.90;53.80;;;;;;5108024;28;20032;-73
2022/08/06 02:07:14;;;;;;;0.32;0.10;;;21.90;53.80;;;;;;5108022;28;20039;-72
2022/08/06 02:09:43;;;;;;;0.80;0.20;;;21.90;53.80;;;;;;5107758;28;20482;-72
2022/08/06 02:12:12;;;;;;;1.00;0.10;;;21.90;53.80;;;;;;5107792;28;20044;-72
2022/08/06 02:14:45;;;;;;;0.52;0.10;;;21.90;53.80;;;;;;5107677;28;20593;-72
2022/08/06 02:17:13;;;;;;;0.20;0.03;;;21.90;53.90;;;;;;5107869;28;20039;-72
2022/08/06 02:19:43;;;;;;;0.50;0.10;;;21.90;53.90;;;;;;5107794;28;20048;-73
2022/08/06 02:22:09;;;;;;;0.50;0.10;;;21.90;53.80;;;;;;5107818;28;20052;-72
2022/08/06 02:24:35;;;;;;;0.80;0.10;;;21.90;53.90;;;;;;5107520;28;20473;-72
2022/08/06 02:27:02;;;;;;;0.40;0.05;;;21.90;53.90;;;;;;5108531;28;20543;-73
2022/08/06 02:29:28;;;;;;;0.20;0.10;;;21.90;53.90;;;;;;5090504;28;20044;-73
2022/08/06 02:31:54;;;;;;;0.50;0.10;;;21.90;53.90;;;;;;5107311;28;20487;-73
2022/08/06 02:34:21;;;;;;;0.20;0.10;;;21.90;53.90;;;;;;5107322;28;20562;-72
2022/08/06 02:36:56;;;;;;;0.30;0.10;;;21.90;53.80;;;;;;5107292;28;20067;-73
2022/08/06 02:39:29;;;;;;;0.38;0.10;;;21.90;53.90;;;;;;5101040;28;20442;-73
2022/08/06 02:42:13;;;;;;;0.40;0.10;;;21.90;53.90;;;;;;5094895;28;20390;-72
2022/08/06 02:44:52;;;;;;;0.30;0.00;;;21.80;53.80;;;;;;5093539;28;20048;-72
2022/08/06 02:47:22;;;;;;;0.25;0.10;;;21.80;53.80;;;;;;5093461;28;20502;-72
2022/08/06 02:49:52;;;;;;;0.68;0.10;;;21.80;53.80;;;;;;5093483;28;20051;-72
2022/08/06 02:52:28;;;;;;;0.52;0.00;;;21.80;53.80;;;;;;5093817;28;20040;-72
2022/08/06 02:54:59;;;;;;;0.30;0.10;;;21.80;53.70;;;;;;5093288;28;20523;-72
2022/08/06 02:57:32;;;;;;;0.38;0.10;;;21.80;53.80;;;;;;5093667;28;20399;-73
2022/08/06 03:00:03;;;;;;;0.10;0.00;;;21.80;53.70;;;;;;5093217;28;20043;-72
2022/08/06 03:02:31;;;;;;;0.57;0.20;;;21.80;53.80;;;;;;5094675;28;20048;-73
2022/08/06 03:04:59;;;;;;;0.38;0.10;;;21.80;53.80;;;;;;5093085;28;20118;-73
2022/08/06 03:07:27;;;;;;;0.35;0.20;;;21.80;53.70;;;;;;5094427;28;20059;-72
2022/08/06 03:09:54;;;;;;;0.82;0.20;;;21.80;53.80;;;;;;5094348;28;20055;-72
2022/08/06 03:12:21;;;;;;;0.90;0.10;;;21.80;53.70;;;;;;5093037;28;20097;-72
2022/08/06 03:14:48;;;;;;;0.60;0.10;;;21.80;53.70;;;;;;5094377;28;20047;-72
2022/08/06 03:17:16;;;;;;;1.20;0.10;;;21.80;53.70;;;;;;5093170;28;20427;-72
2022/08/06 03:19:44;;;;;;;0.35;0.17;;;21.80;54.50;;;;;;5093157;28;20127;-72
2022/08/06 03:22:11;;;;;;;0.15;0.10;;;21.70;53.70;;;;;;5092987;28;20460;-73
2022/08/06 03:24:39;;;;;;;0.35;0.22;;;21.70;53.70;;;;;;5092855;28;20051;-72
2022/08/06 03:27:07;;;;;;;0.10;0.00;;;21.70;53.70;;;;;;5093695;28;20135;-72
2022/08/06 03:29:35;;;;;;;0.30;0.10;;;21.70;53.70;;;;;;5092734;28;20103;-73
2022/08/06 03:32:01;;;;;;;0.60;0.10;;;21.70;53.70;;;;;;5092570;28;20040;-73
2022/08/06 03:34:29;;;;;;;0.20;0.10;;;21.70;53.70;;;;;;5092975;28;20081;-73
2022/08/06 03:36:56;;;;;;;0.60;0.10;;;21.70;53.70;;;;;;5092748;28;20394;-72
2022/08/06 03:39:25;;;;;;;0.40;0.10;;;21.70;53.70;;;;;;5092916;28;20059;-73
2022/08/06 03:41:52;;;;;;;0.63;0.20;;;21.70;53.70;;;;;;5092383;28;20043;-73
2022/08/06 03:44:17;;;;;;;1.05;0.00;;;21.70;53.70;;;;;;5092756;28;20071;-72
2022/08/06 03:46:53;;;;;;;0.75;0.38;;;21.70;53.70;;;;;;5092410;28;20442;-72
2022/08/06 03:49:32;;;;;;;0.47;0.10;;;21.70;53.70;;;;;;5092650;28;20372;-72
2022/08/06 03:52:01;;;;;;;0.32;0.00;;;21.70;53.70;;;;;;5092567;28;20107;-72
2022/08/06 03:54:32;;;;;;;0.10;0.10;;;21.60;53.70;;;;;;5092466;28;20063;-72
2022/08/06 03:57:03;;;;;;;0.25;0.10;;;21.60;53.60;;;;;;5093431;28;20047;-72
2022/08/06 03:59:30;;;;;;;0.15;0.00;;;21.60;53.60;;;;;;5092464;28;20615;-72
2022/08/06 04:01:58;;;;;;;1.00;0.10;;;21.60;53.60;;;;;;5092322;28;20044;-73
2022/08/06 04:04:25;;;;;;;0.10;0.10;;;21.60;53.60;;;;;;5092013;28;20085;-72
2022/08/06 04:06:53;;;;;;;0.22;0.13;;;21.60;53.60;;;;;;5091917;28;20044;-73
2022/08/06 04:09:19;;;;;;;0.30;0.10;;;21.60;53.60;;;;;;5092259;28;20095;-72
2022/08/06 04:11:46;;;;;;;0.22;0.10;;;21.60;53.60;;;;;;5093205;28;20111;-72
2022/08/06 04:14:12;;;;;;;0.20;0.10;;;21.60;53.60;;;;;;5092123;28;20050;-72
2022/08/06 04:16:40;;;;;;;0.10;0.00;;;21.60;53.60;;;;;;5093143;28;20124;-72
2022/08/06 04:19:10;;;;;;;0.50;0.10;;;21.60;53.60;;;;;;5091916;28;20032;-72
2022/08/06 04:21:36;;;;;;;0.35;0.03;;;21.60;53.60;;;;;;5091757;28;20047;-72
2022/08/06 04:24:02;;;;;;;0.28;0.03;;;21.60;53.60;;;;;;5093030;28;20040;-72
2022/08/06 04:26:28;;;;;;;0.20;0.20;;;21.50;53.60;;;;;;5091852;28;20040;-72
2022/08/06 04:28:55;;;;;;;0.20;0.03;;;21.50;53.60;;;;;;5092551;28;20585;-73
2022/08/06 04:31:23;;;;;;;0.20;0.10;;;21.50;53.60;;;;;;5092791;28;20443;-73
2022/08/06 04:33:51;;;;;;;0.22;0.00;;;21.50;53.60;;;;;;5091369;28;20047;-73
2022/08/06 04:36:19;;;;;;;0.15;0.10;;;21.50;53.50;;;;;;5091494;28;20040;-72
2022/08/06 04:38:45;;;;;;;1.20;0.10;;;21.50;53.60;;;;;;5091376;28;20052;-72
2022/08/06 04:41:12;;;;;;;0.25;0.10;;;21.50;53.50;;;;;;5092672;28;20036;-72
2022/08/06 04:43:38;;;;;;;0.25;0.08;;;21.50;53.50;;;;;;5091497;28;20046;-72
2022/08/06 04:46:04;;;;;;;0.32;0.00;;;21.50;53.50;;;;;;5091538;28;20036;-72
2022/08/06 04:48:30;;;;;;;0.10;0.00;;;21.50;53.50;;;;;;5091230;28;20032;-72
2022/08/06 04:50:56;;;;;;;0.10;0.00;;;21.50;53.60;;;;;;5091244;28;20036;-72
2022/08/06 04:53:22;;;;;;;0.40;0.10;;;21.50;53.60;;;;;;5092640;28;20160;-73
2022/08/06 04:55:48;;;;;;;0.30;0.10;;;21.50;53.50;;;;;;5091128;28;20066;-72
2022/08/06 04:58:16;;;;;;;0.10;0.10;;;21.50;53.50;;;;;;5092442;28;20086;-72
2022/08/06 05:00:44;;;;;;;0.35;0.20;;;21.50;53.50;;;;;;5091292;28;20044;-72
2022/08/06 05:03:10;;;;;;;0.20;0.10;;;21.50;53.60;;;;;;5073916;28;20078;-72
2022/08/06 05:05:46;;;;;;;0.43;0.10;;;21.50;53.60;;;;;;5090944;28;20073;-72
2022/08/06 05:08:12;;;;;;;0.40;0.10;;;21.50;53.60;;;;;;5090958;28;20408;-72
2022/08/06 05:10:51;;;;;;;0.20;0.10;;;21.50;53.60;;;;;;5092207;28;20081;-72
2022/08/06 05:13:20;;;;;;;0.30;0.10;;;21.50;53.60;;;;;;5090965;28;20043;-72
2022/08/06 05:15:51;;;;;;;0.20;0.10;;;21.50;53.60;;;;;;5090851;28;20046;-72
2022/08/06 05:18:25;;;;;;;0.43;0.10;;;21.50;53.60;;;;;;5091056;28;20047;-73
2022/08/06 05:20:53;;;;;;;0.30;0.10;;;21.40;53.50;;;;;;5092048;28;20040;-72
2022/08/06 05:23:24;;;;;;;0.50;0.10;;;21.50;53.60;;;;;;5091063;28;20618;-72
2022/08/06 05:25:50;;;;;;;0.40;0.10;;;21.40;53.60;;;;;;5090732;28;20072;-72
2022/08/06 05:28:15;;;;;;;0.20;0.00;;;21.50;53.60;;;;;;5090370;28;20051;-72
2022/08/06 05:30:43;;;;;;;0.85;0.10;;;21.40;53.50;;;;;;5092092;28;20029;-73
2022/08/06 05:33:09;;;;;;;0.30;0.10;;;21.40;53.50;;;;;;5090980;28;20042;-73
2022/08/06 05:35:35;;;;;;;0.30;0.10;;;21.40;53.60;;;;;;5090898;28;20609;-72
2022/08/06 05:38:00;;;;;;;0.47;0.13;;;21.40;53.60;;;;;;5090657;28;20487;-73
2022/08/06 05:40:33;;;;;;;0.68;0.10;;;21.40;53.60;;;;;;5090536;28;20052;-73
2022/08/06 05:42:59;;;;;;;1.05;0.10;;;21.40;53.60;;;;;;5090755;28;20059;-72
2022/08/06 05:45:26;;;;;;;0.30;0.10;;;21.40;53.60;;;;;;5090534;28;20089;-72
2022/08/06 05:47:54;;;;;;;0.95;0.10;;;21.40;53.60;;;;;;5091891;28;20078;-72
2022/08/06 05:50:26;;;;;;;0.32;0.00;;;21.40;53.60;;;;;;5090532;28;20110;-72
2022/08/06 05:53:13;;;;;;;0.10;0.05;;;21.40;53.70;;;;;;5091832;28;20040;-72
2022/08/06 05:55:45;;;;;;;0.20;0.10;;;21.40;53.70;;;;;;5091713;28;20467;-72
2022/08/06 05:58:14;;;;;;;0.20;0.10;;;21.40;53.70;;;;;;5091990;28;20036;-72
2022/08/06 06:00:41;;;;;;;0.28;0.10;;;21.40;53.70;;;;;;5090633;28;20066;-72
2022/08/06 06:03:09;;;;;;;0.30;0.10;;;21.40;53.70;;;;;;5090474;28;20076;-72
2022/08/06 06:05:36;;;;;;;0.30;0.10;;;21.40;53.70;;;;;;5090686;28;20438;-72
2022/08/06 06:08:04;;;;;;;0.20;0.10;;;21.40;53.70;;;;;;5090207;28;20071;-72
2022/08/06 06:10:31;;;;;;;0.65;0.00;;;21.40;53.70;;;;;;5090305;28;20040;-72
2022/08/06 06:12:57;;;;;;;0.35;0.10;;;21.40;53.70;;;;;;5090585;28;20043;-72
2022/08/06 06:15:23;;;;;;;0.35;0.10;;;21.40;53.70;;;;;;5094697;28;20080;-72
2022/08/06 06:30:33;;;;;;;0.47;0.10;;;21.40;53.80;;;;;;5130242;27;20435;-72
2022/08/06 06:38:34;;;;;;;0.15;0.00;;;21.40;53.80;;;;;;5130314;27;20411;-73
2022/08/06 06:49:18;;;;;;;0.20;0.10;;;21.40;53.90;;;;;;5089450;27;20352;-72
2022/08/06 06:51:49;;;;;;;0.30;0.10;;;21.40;53.90;;;;;;5105414;28;20109;-72
2022/08/06 06:54:22;;;;;;;0.95;0.10;;;21.40;53.90;;;;;;5089301;28;20045;-72
2022/08/06 06:56:50;;;;;;;0.50;0.25;;;21.30;53.90;;;;;;5088141;28;20384;-72
2022/08/06 06:59:23;;;;;;;0.75;0.10;;;21.30;53.80;;;;;;5087937;28;20074;-72
2022/08/06 07:01:49;;;;;;;0.95;0.10;;;21.30;53.90;;;;;;5088025;28;20040;-72
2022/08/06 07:04:17;;;;;;;0.28;0.10;;;21.30;53.90;;;;;;5087890;28;20037;-72
2022/08/06 07:06:46;;;;;;;0.03;0.00;;;21.30;53.90;;;;;;5089124;28;20044;-72
2022/08/06 07:09:22;;;;;;;0.28;0.00;;;21.30;53.90;;;;;;5087976;28;20047;-72
2022/08/06 07:11:51;;;;;;;0.20;0.10;;;21.30;53.90;;;;;;5088128;28;20503;-72
2022/08/06 07:14:19;;;;;;;0.20;0.10;;;21.30;53.90;;;;;;5087762;28;20036;-72
2022/08/06 07:16:47;;;;;;;0.15;0.00;;;21.30;53.90;;;;;;5089043;28;20040;-72
2022/08/06 07:19:13;;;;;;;0.50;0.10;;;21.30;53.90;;;;;;5088870;28;20044;-72
2022/08/06 07:21:41;;;;;;;0.95;0.28;;;21.30;53.90;;;;;;5088835;28;20482;-72
2022/08/06 07:24:09;;;;;;;0.32;0.17;;;21.30;53.90;;;;;;5088866;28;20032;-72
2022/08/06 07:26:37;;;;;;;0.30;0.10;;;21.30;53.90;;;;;;5087725;28;20044;-72
2022/08/06 07:29:03;;;;;;;0.30;0.10;;;21.30;53.90;;;;;;5087688;28;20044;-72
2022/08/06 07:31:30;;;;;;;0.20;0.00;;;21.30;54.00;;;;;;5088713;28;20036;-72
2022/08/06 07:33:57;;;;;;;1.08;0.10;;;21.30;54.00;;;;;;5088650;28;20032;-72
2022/08/06 07:36:26;;;;;;;0.20;0.10;;;21.30;54.00;;;;;;5087347;28;20044;-72
2022/08/06 07:38:59;;;;;;;0.15;0.05;;;21.30;54.00;;;;;;5104265;28;20063;-72
2022/08/06 07:41:27;;;;;;;0.52;0.10;;;21.30;54.00;;;;;;5088715;28;20040;-72
2022/08/06 07:43:56;;;;;;;0.10;0.10;;;21.30;54.00;;;;;;5087512;28;20040;-72
2022/08/06 07:46:26;;;;;;;1.27;0.10;;;21.30;54.00;;;;;;5087083;28;20040;-72
2022/08/06 07:48:56;;;;;;;0.30;0.07;;;21.30;54.00;;;;;;5086851;28;20059;-72
2022/08/06 07:51:38;;;;;;;;;;;21.30;54.00;;;;;;5087428;28;20040;-72
2022/08/06 07:54:07;;;;;;;0.20;0.00;;;21.30;54.00;;;;;;5088277;28;19917;-72
2022/08/06 07:56:35;;;;;;;0.30;0.20;;;21.30;54.00;;;;;;5088279;28;20043;-72
2022/08/06 07:59:03;;;;;;;0.20;0.10;;;21.30;54.00;;;;;;5082498;28;20037;-71
2022/08/06 08:01:29;;;;;;;0.22;0.10;;;21.30;54.00;;;;;;5074659;28;20092;-72
2022/08/06 08:06:43;;;;;;;0.32;0.08;;;21.30;53.90;;;;;;5072901;28;20053;-72
2022/08/06 08:09:12;;;;;;;0.17;0.00;;;21.30;53.90;;;;;;5073234;28;20036;-72
2022/08/06 08:11:41;;;;;;;0.37;0.17;;;21.30;54.00;;;;;;5073183;28;20057;-72
2022/08/06 08:14:09;;;;;;;0.40;0.10;;;21.30;53.90;;;;;;5073144;28;20048;-72
2022/08/06 08:16:37;;;;;;;0.32;0.00;;;21.30;53.90;;;;;;5073041;28;20044;-72
2022/08/06 08:19:03;;;;;;;0.20;0.05;;;21.30;53.90;;;;;;5074486;28;20036;-72
2022/08/06 08:21:29;;;;;;;0.17;0.00;;;21.30;53.80;;;;;;5072982;28;20051;-72
2022/08/06 08:23:55;;;;;;;0.52;0.00;;;21.30;53.80;;;;;;5073305;28;20400;-78
2022/08/06 08:26:21;;;;;;;0.10;0.00;;;21.40;53.80;;;;;;5074220;28;20119;-72
2022/08/06 08:28:46;;;;;;;0.20;0.00;;;21.30;53.80;;;;;;5072793;28;20591;-72
2022/08/06 08:31:13;;;;;;;0.63;0.00;;;21.30;53.70;;;;;;5074007;28;20040;-72
2022/08/06 08:33:39;;;;;;;0.20;0.10;;;21.30;53.70;;;;;;5074116;28;20028;-72
2022/08/06 08:36:06;;;;;;;0.45;0.08;;;21.40;53.70;;;;;;5072769;28;20520;-72
2022/08/06 08:38:34;;;;;;;0.20;0.10;;;21.40;53.70;;;;;;5072986;28;20044;-72
2022/08/06 08:41:12;;;;;;;0.10;0.05;;;21.40;53.70;;;;;;5055946;28;20044;-72
2022/08/06 08:43:44;;;;;;;0.52;0.10;;;21.40;53.70;;;;;;5072541;28;20048;-71
2022/08/06 08:46:11;;;;;;;0.20;0.10;;;21.40;53.70;;;;;;5072430;28;20082;-72
2022/08/06 08:48:37;;;;;;;0.08;0.00;;;21.40;53.60;;;;;;5072249;28;20044;-72
2022/08/06 08:51:04;;;;;;;0.35;0.10;;;21.40;53.60;;;;;;5073820;28;20066;-72
2022/08/06 08:53:42;;;;;;;0.45;0.00;;;21.40;53.60;;;;;;5072350;28;20064;-72
2022/08/06 08:56:08;;;;;;;0.20;0.10;;;21.40;53.50;;;;;;5072284;28;20279;-72
2022/08/06 08:58:36;;;;;;;0.20;0.10;;;21.40;53.50;;;;;;5072285;28;20040;-72
2022/08/06 09:01:07;;;;;;;0.35;0.10;;;21.40;53.50;;;;;;5072285;28;20503;-72
2022/08/06 09:03:34;;;;;;;0.93;0.10;;;21.50;53.50;;;;;;5072206;28;20048;-72
2022/08/06 09:06:02;;;;;;;0.40;0.10;;;21.50;53.40;;;;;;5072366;28;20062;-72
2022/08/06 09:08:28;;;;;;;0.10;0.00;;;21.50;53.40;;;;;;5073305;28;20101;-72
2022/08/06 09:10:54;;;;;;;0.05;0.00;;;21.50;53.30;;;;;;5071382;28;20430;-72
2022/08/06 09:13:19;;;;;;;0.50;0.10;;;21.60;53.30;;;;;;5072036;28;20036;-72
2022/08/06 09:15:45;;;;;;;0.32;0.05;;;21.60;53.10;;;;;;5072046;28;20037;-72
2022/08/06 09:18:10;;;;;;;0.30;0.00;;;21.70;53.00;;;;;;5073117;28;20048;-72
2022/08/06 09:20:37;;;;;;;0.17;0.10;;;21.70;52.90;;;;;;5071974;28;20067;-72
2022/08/06 09:23:03;;;;;;;0.38;0.10;;;21.70;52.80;;;;;;5071747;28;20037;-72
2022/08/06 09:28:34;;;;;;;0.63;0.08;;;21.70;52.70;;;;;;5109809;27;20302;-72
2022/08/06 09:34:02;;;;;;;0.32;0.00;;;21.80;52.60;;;;;;5089527;28;20413;-72
2022/08/06 09:36:39;;;;;;;0.20;0.00;;;21.80;52.60;;;;;;5088461;28;20044;-72
2022/08/06 09:39:05;;;;;;;0.30;0.10;;;21.80;52.50;;;;;;5088353;28;20423;-72
2022/08/06 09:41:44;;;;;;;0.10;0.00;;;21.80;52.30;;;;;;5088410;28;20105;-72
2022/08/06 09:44:11;;;;;;;0.32;0.10;;;21.90;52.20;;;;;;5105213;28;20054;-72
2022/08/06 09:46:43;;;;;;;0.40;0.10;;;21.90;52.20;;;;;;5087906;28;20040;-72
2022/08/06 09:49:12;;;;;;;0.17;0.00;;;21.90;52.10;;;;;;5087916;28;20508;-72
2022/08/06 09:51:38;;;;;;;0.40;0.08;;;21.90;52.20;;;;;;5089295;28;20041;-72
2022/08/06 09:54:05;;;;;;;0.43;0.10;;;21.90;52.20;;;;;;5089052;28;20527;-72
2022/08/06 09:56:32;;;;;;;0.28;0.00;;;21.90;52.10;;;;;;5088124;28;20119;-72
2022/08/06 09:58:59;;;;;;;0.28;0.10;;;21.90;52.10;;;;;;5088016;28;20365;-72
2022/08/06 10:01:25;;;;;;;0.17;0.00;;;21.90;52.00;;;;;;5089023;28;20428;-72
2022/08/06 10:03:54;;;;;;;0.73;0.10;;;21.90;52.00;;;;;;5087818;28;20040;-72
2022/08/06 10:06:20;;;;;;;0.10;0.00;;;21.90;51.90;;;;;;5088902;28;20461;-72
2022/08/06 10:08:48;;;;;;;0.15;0.10;;;21.90;51.90;;;;;;5087515;28;20071;-72
2022/08/06 10:11:15;;;;;;;0.50;0.00;;;21.90;51.90;;;;;;5087560;28;20484;-72
2022/08/06 10:13:47;;;;;;;0.40;0.10;;;21.90;52.00;;;;;;5088809;28;20097;-72
2022/08/06 10:16:30;;;;;;;0.32;0.10;;;21.90;52.00;;;;;;5088889;28;20431;-72
2022/08/06 10:18:57;;;;;;;0.82;0.10;;;21.90;52.00;;;;;;5087667;28;20098;-72
2022/08/06 10:21:32;;;;;;;0.32;0.00;;;21.90;52.00;;;;;;5087538;28;20037;-72
2022/08/06 10:24:02;;;;;;;0.32;0.10;;;21.90;52.00;;;;;;5087691;28;20081;-72
2022/08/06 10:26:30;;;;;;;0.20;0.10;;;21.90;52.00;;;;;;5087204;28;20043;-72
2022/08/06 10:29:03;;;;;;;0.20;0.08;;;21.90;52.10;;;;;;5087224;28;20507;-72
2022/08/06 10:31:30;;;;;;;0.20;0.10;;;21.90;52.00;;;;;;5088023;28;20111;-73
2022/08/06 10:34:01;;;;;;;0.10;0.00;;;21.90;52.10;;;;;;5087413;28;20043;-72
2022/08/06 10:36:35;;;;;;;0.10;0.00;;;21.90;52.00;;;;;;5088412;28;20043;-73
2022/08/06 10:39:02;;;;;;;0.50;0.05;;;21.90;52.00;;;;;;5088269;28;20491;-72
2022/08/06 10:41:29;;;;;;;0.10;0.00;;;21.90;52.00;;;;;;5088132;28;20392;-72
2022/08/06 10:43:55;;;;;;;0.10;0.10;;;21.90;51.90;;;;;;5081583;28;20115;-72
2022/08/06 10:46:22;;;;;;;0.30;0.10;;;21.90;51.90;;;;;;5073527;28;20040;-72
2022/08/06 10:48:49;;;;;;;0.55;0.10;;;21.90;51.90;;;;;;5073380;28;20480;-72
2022/08/06 10:51:15;;;;;;;0.13;0.00;;;21.90;51.80;;;;;;5073266;28;20038;-72
2022/08/06 10:53:44;;;;;;;0.60;0.10;;;21.90;51.80;;;;;;5073109;28;20047;-72
2022/08/06 10:56:13;;;;;;;0.38;0.10;;;21.90;51.90;;;;;;5073116;28;20048;-72
2022/08/06 10:58:40;;;;;;;0.32;0.10;;;21.90;51.90;;;;;;5073189;28;20042;-72
2022/08/06 11:01:09;;;;;;;0.80;0.10;;;21.90;51.80;;;;;;5073352;28;20036;-72
2022/08/06 11:03:44;;;;;;;0.13;0.10;;;21.90;51.80;;;;;;5073385;28;20036;-73
2022/08/06 11:06:38;;;;;;;0.38;0.10;;;21.90;51.90;;;;;;5072945;28;20045;-72
2022/08/06 11:14:39;;;;;;;0.47;0.10;;;21.90;51.90;;;;;;5089599;28;20401;-72
2022/08/06 11:17:06;;;;;;;0.32;0.10;;;21.90;51.90;;;;;;5104958;28;20044;-72
2022/08/06 11:22:37;;;;;;;0.20;0.10;;;21.90;51.80;;;;;;5089512;27;20355;-73
2022/08/06 11:25:06;;;;;;;1.67;0.32;;;21.90;51.80;;;;;;5088425;28;20147;-72
2022/08/06 11:30:49;;;;;;;0.73;0.10;;;21.90;51.70;;;;;;5130386;27;20110;-72
2022/08/06 11:33:19;;;;;;;0.43;0.15;;;21.90;51.70;;;;;;5129258;28;20054;-72
2022/08/06 11:35:48;;;;;;;0.30;0.00;;;21.90;51.80;;;;;;5129182;27;20066;-73
2022/08/06 11:38:35;;;;;;;0.55;0.10;;;21.90;51.80;;;;;;5128927;27;20041;-72
2022/08/06 11:41:07;;;;;;;0.20;0.10;;;21.90;51.80;;;;;;5163738;27;20061;-72
2022/08/06 11:51:58;;;;;;;0.93;0.10;;;21.90;51.80;;;;;;5130411;27;20350;-72
2022/08/06 12:08:20;;;;;;;0.70;0.20;;;21.90;51.90;;;;;;5152944;27;1161377;-72
2022/08/06 12:11:21;;;;;;;0.50;0.10;;;21.90;51.90;;;;;;5153423;27;20455;-72
2022/08/06 12:13:47;;;;;;;0.17;0.10;;;21.80;51.90;;;;;;5152941;27;20573;-72
2022/08/06 12:16:30;;;;;;;0.40;0.10;;;21.90;52.00;;;;;;5153096;27;20046;-72
2022/08/06 12:18:56;;;;;;;0.60;0.10;;;21.80;51.90;;;;;;5153190;27;20133;-72
2022/08/06 12:21:24;;;;;;;0.73;0.10;;;21.90;52.00;;;;;;5153223;27;20066;-72
2022/08/06 12:23:51;;;;;;;0.50;0.10;;;21.90;52.00;;;;;;5153068;27;20102;-72
2022/08/06 12:26:18;;;;;;;0.68;0.10;;;21.80;52.00;;;;;;5171386;27;20074;-72
2022/08/06 12:28:45;;;;;;;0.40;0.10;;;21.80;51.90;;;;;;5153130;27;20489;-73
2022/08/06 12:31:10;;;;;;;0.57;0.28;;;21.80;51.90;;;;;;5153010;27;20046;-72
2022/08/06 12:33:41;;;;;;;0.50;0.20;;;21.80;51.90;;;;;;5152863;27;20397;-72
2022/08/06 12:36:07;;;;;;;0.50;0.20;;;21.90;52.00;;;;;;5152999;27;20485;-72
2022/08/06 12:38:34;;;;;;;0.43;0.20;;;21.90;52.00;;;;;;5171281;27;20034;-72
2022/08/06 12:41:05;;;;;;;1.05;0.25;;;21.90;52.10;;;;;;5152488;27;20113;-73
2022/08/06 12:43:32;;;;;;;0.57;0.15;;;21.80;51.90;;;;;;5152813;27;20042;-72
2022/08/06 12:46:00;;;;;;;0.30;0.10;;;21.90;52.00;;;;;;5152330;27;20046;-73
2022/08/06 12:48:25;;;;;;;0.50;0.20;;;21.80;51.90;;;;;;5152690;27;20034;-72
2022/08/06 12:51:04;;;;;;;0.68;0.15;;;21.90;52.00;;;;;;5171160;27;20389;-72
2022/08/06 12:53:29;;;;;;;0.70;0.10;;;21.90;51.90;;;;;;5152552;27;20163;-72
2022/08/06 12:55:56;;;;;;;0.55;0.20;;;21.90;51.90;;;;;;5152263;27;20129;-72
2022/08/06 12:58:29;;;;;;;0.45;0.10;;;21.90;51.90;;;;;;5152251;27;20050;-72
2022/08/06 13:00:57;;;;;;;0.98;0.20;;;21.90;51.90;;;;;;5134980;27;20042;-72
2022/08/06 13:03:25;;;;;;;0.50;0.20;;;21.90;51.90;;;;;;5152447;27;20049;-72
2022/08/06 13:05:52;;;;;;;0.20;0.10;;;21.90;51.90;;;;;;5151964;27;20121;-72
2022/08/06 13:08:20;;;;;;;0.60;0.10;;;21.90;51.90;;;;;;5151932;27;20046;-72
2022/08/06 13:10:49;;;;;;;0.35;0.10;;;21.90;51.90;;;;;;5151981;27;20118;-72
2022/08/06 13:13:16;;;;;;;0.82;0.10;;;21.90;51.90;;;;;;5151999;27;20489;-72
2022/08/06 13:15:41;;;;;;;0.40;0.10;;;21.90;51.90;;;;;;5152168;27;20046;-72
2022/08/06 13:20:51;;;;;;;0.90;0.10;;;21.90;51.90;;;;;;5130237;27;20423;-73
2022/08/06 13:23:29;;;;;;;1.15;0.20;;;21.90;51.90;;;;;;5129074;28;20051;-72
2022/08/06 13:25:55;;;;;;;0.73;0.20;;;21.90;51.70;;;;;;5146213;27;20047;-72
2022/08/06 13:28:23;;;;;;;0.38;0.10;;;21.90;51.80;;;;;;5129021;28;20122;-72
2022/08/06 13:30:49;;;;;;;0.30;0.17;;;21.90;51.80;;;;;;5128849;28;20043;-73
2022/08/06 13:33:18;;;;;;;0.65;0.20;;;22.00;51.80;;;;;;5129143;28;20450;-72
2022/08/06 13:35:45;;;;;;;0.40;0.10;;;21.90;51.70;;;;;;5128914;28;20035;-72
2022/08/06 13:38:25;;;;;;;0.57;0.20;;;21.90;51.70;;;;;;5128773;28;20118;-73
2022/08/06 13:40:50;;;;;;;0.73;0.20;;;21.90;51.70;;;;;;5128972;28;20062;-72
2022/08/06 13:43:16;;;;;;;0.82;0.65;;;21.90;51.70;;;;;;5128601;28;20035;-72
2022/08/06 13:45:42;;;;;;;0.20;0.10;;;22.00;51.80;;;;;;5128547;28;20044;-73
2022/08/06 13:48:09;;;;;;;0.95;0.10;;;21.90;51.70;;;;;;5128477;28;20050;-73
2022/08/06 13:50:37;;;;;;;0.77;0.30;;;21.90;51.70;;;;;;5128561;28;20402;-73
2022/08/06 13:53:04;;;;;;;0.60;0.40;;;21.90;51.70;;;;;;5128658;27;20062;-73
2022/08/06 13:55:30;;;;;;;0.40;0.20;;;22.00;51.80;;;;;;5128676;28;20100;-72
2022/08/06 13:57:57;;;;;;;0.38;0.10;;;22.00;51.80;;;;;;5128258;28;20043;-73
2022/08/06 14:00:23;;;;;;;0.50;0.13;;;21.90;51.70;;;;;;5128275;28;20043;-72
2022/08/06 14:02:49;;;;;;;1.10;0.22;;;21.90;52.40;;;;;;5128485;28;20142;-73
2022/08/06 14:05:15;;;;;;;0.60;0.13;;;22.00;51.70;;;;;;5129682;28;20123;-72
2022/08/06 14:07:41;;;;;;;0.55;0.20;;;22.00;51.70;;;;;;5128127;28;20051;-72
2022/08/06 14:10:08;;;;;;;0.40;0.20;;;21.90;51.70;;;;;;5128131;27;20087;-72
2022/08/06 14:12:33;;;;;;;0.73;0.20;;;22.00;51.80;;;;;;5129349;27;20046;-72